Map

Track Data

SID SEASON NUMBER BASIN SUBBASIN NAME ISO_TIME NATURE LAT LON WMO_WIND WMO_PRES WMO_AGENCY TRACK_TYPE DIST2LAND LANDFALL IFLAG USA_AGENCY USA_ATCF_ID USA_LAT USA_LON USA_RECORD USA_STATUS USA_WIND USA_PRES USA_SSHS USA_R34_NE USA_R34_SE USA_R34_SW USA_R34_NW USA_R50_NE USA_R50_SE USA_R50_SW USA_R50_NW USA_R64_NE USA_R64_SE USA_R64_SW USA_R64_NW USA_POCI USA_ROCI USA_RMW USA_EYE TOKYO_LAT TOKYO_LON TOKYO_GRADE TOKYO_WIND TOKYO_PRES TOKYO_R50_DIR TOKYO_R50_LONG TOKYO_R50_SHORT TOKYO_R30_DIR TOKYO_R30_LONG TOKYO_R30_SHORT TOKYO_LAND CMA_LAT CMA_LON CMA_CAT CMA_WIND CMA_PRES HKO_LAT HKO_LON HKO_CAT HKO_WIND HKO_PRES NEWDELHI_LAT NEWDELHI_LON NEWDELHI_GRADE NEWDELHI_WIND NEWDELHI_PRES NEWDELHI_CI NEWDELHI_DP NEWDELHI_POCI REUNION_LAT REUNION_LON REUNION_TYPE REUNION_WIND REUNION_PRES REUNION_TNUM REUNION_CI REUNION_RMW REUNION_R34_NE REUNION_R34_SE REUNION_R34_SW REUNION_R34_NW REUNION_R50_NE REUNION_R50_SE REUNION_R50_SW REUNION_R50_NW REUNION_R64_NE REUNION_R64_SE REUNION_R64_SW REUNION_R64_NW BOM_LAT BOM_LON BOM_TYPE BOM_WIND BOM_PRES BOM_TNUM BOM_CI BOM_RMW BOM_R34_NE BOM_R34_SE BOM_R34_SW BOM_R34_NW BOM_R50_NE BOM_R50_SE BOM_R50_SW BOM_R50_NW BOM_R64_NE BOM_R64_SE BOM_R64_SW BOM_R64_NW BOM_ROCI BOM_POCI BOM_EYE BOM_POS_METHOD BOM_PRES_METHOD NADI_LAT NADI_LON NADI_CAT NADI_WIND NADI_PRES WELLINGTON_LAT WELLINGTON_LON WELLINGTON_WIND WELLINGTON_PRES DS824_LAT DS824_LON DS824_STAGE DS824_WIND DS824_PRES TD9636_LAT TD9636_LON TD9636_STAGE TD9636_WIND TD9636_PRES TD9635_LAT TD9635_LON TD9635_WIND TD9635_PRES TD9635_ROCI NEUMANN_LAT NEUMANN_LON NEUMANN_CLASS NEUMANN_WIND NEUMANN_PRES MLC_LAT MLC_LON MLC_CLASS MLC_WIND MLC_PRES USA_GUST BOM_GUST BOM_GUST_PER REUNION_GUST REUNION_GUST_PER USA_SEAHGT USA_SEARAD_NE USA_SEARAD_SE USA_SEARAD_SW USA_SEARAD_NW STORM_SPEED STORM_DIR
1968218N15141 1968 58 WP MM ROSE 1968-08-05 00:00:00 TS 15.0000 141.000 1008 tokyo main 1704 1662 _OO___________ -1 15.0000 141.000 2 1008 0 0 0 15.0000 141.000 0 1008 8 272
1968218N15141 1968 58 WP MM ROSE 1968-08-05 03:00:00 TS 15.0126 140.608 main 1662 1619 _PP___________ -1 15.0126 140.608 2 1007 0 0 15.0126 140.608 0 1007 8 270
1968218N15141 1968 58 WP MM ROSE 1968-08-05 06:00:00 TS 15.0000 140.200 1006 tokyo main 1619 1577 _OO___________ -1 15.0000 140.200 2 1006 0 0 0 15.0000 140.200 0 1006 8 266
1968218N15141 1968 58 WP MM ROSE 1968-08-05 09:00:00 TS 14.9499 139.765 main 1575 1522 _PP___________ -1 14.9499 139.765 2 1007 0 0 14.9499 139.765 0 1006 9 263
1968218N15141 1968 58 WP MM ROSE 1968-08-05 12:00:00 TS 14.9000 139.300 1008 tokyo main 1522 1469 _OO___________ -1 14.9000 139.300 2 1008 0 0 0 14.9000 139.300 0 1006 9 266
1968218N15141 1968 58 WP MM ROSE 1968-08-05 15:00:00 TS 14.8925 138.800 main 1469 1416 _PP___________ -1 14.8925 138.800 2 1007 0 0 14.8925 138.800 0 1006 10 270
1968218N15141 1968 58 WP MM ROSE 1968-08-05 18:00:00 TS 14.9000 138.300 1006 tokyo main 1416 1374 _OO___________ -1 14.9000 138.300 2 1006 0 0 0 14.9000 138.300 0 1006 9 270
1968218N15141 1968 58 WP MM ROSE 1968-08-05 21:00:00 TS 14.8923 137.850 main 1364 1321 _PP___________ -1 14.8923 137.850 2 1007 0 0 14.8923 137.850 0 1006 9 270
1968218N15141 1968 58 WP MM ROSE 1968-08-06 00:00:00 TS 14.9000 137.400 1008 tokyo main 1321 1269 _OO___________ -1 14.9000 137.400 2 1008 0 0 0 14.9000 137.400 0 1006 9 273
1968218N15141 1968 58 WP MM ROSE 1968-08-06 03:00:00 TS 14.9425 136.893 main 1269 1219 _PP___________ -1 14.9425 136.893 2 1007 0 0 14.9425 136.893 0 1006 10 276
1968218N15141 1968 58 WP MM ROSE 1968-08-06 06:00:00 TS 15.0000 136.400 1006 tokyo main 1219 1177 _OO___________ -1 15.0000 136.400 2 1006 0 0 0 15.0000 136.400 0 1006 9 277
1968218N15141 1968 58 WP MM ROSE 1968-08-06 09:00:00 TS 15.0498 135.992 main 1177 1138 _PP___________ -1 15.0498 135.992 2 1006 0 0 15.0498 135.992 0 1005 8 277
1968218N15141 1968 58 WP MM ROSE 1968-08-06 12:00:00 TS 15.1000 135.600 1006 tokyo main 1138 1097 _OO___________ -1 15.1000 135.600 2 1006 0 0 0 15.1000 135.600 0 1005 8 278
1968218N15141 1968 58 WP MM ROSE 1968-08-06 15:00:00 TS 15.1575 135.158 main 1100 1049 _PP___________ -1 15.1575 135.158 2 1006 0 0 15.1575 135.158 0 1005 9 277
1968218N15141 1968 58 WP MM ROSE 1968-08-06 18:00:00 TS 15.2000 134.700 1006 tokyo main 1049 1008 _OO___________ -1 15.2000 134.700 2 1006 0 0 0 15.2000 134.700 0 1005 9 273
1968218N15141 1968 58 WP MM ROSE 1968-08-06 21:00:00 TS 15.1999 134.250 main 998 957 _PP___________ -1 15.1999 134.250 2 1006 0 0 15.1999 134.250 0 1005 9 270
1968218N15141 1968 58 WP MM ROSE 1968-08-07 00:00:00 TS 15.2000 133.800 1006 tokyo main 957 917 _OO___________ -1 15.2000 133.800 2 1006 0 0 0 15.2000 133.800 0 1005 9 273
1968218N15141 1968 58 WP MM ROSE 1968-08-07 03:00:00 TS 15.2425 133.335 main 907 871 _PP___________ -1 15.2425 133.335 2 1005 0 0 15.2425 133.335 0 1004 9 277
1968218N15141 1968 58 WP MM ROSE 1968-08-07 06:00:00 TS 15.3000 132.900 1004 tokyo main 871 842 _OO___________ -1 15.3000 132.900 2 1004 0 0 0 15.3000 132.900 0 1004 8 278
1968218N15141 1968 58 WP MM ROSE 1968-08-07 09:00:00 TS 15.3423 132.550 main 832 807 _PP___________ -1 15.3423 132.550 2 1004 0 0 15.3423 132.550 0 1004 7 278
1968218N15141 1968 58 WP MM ROSE 1968-08-07 12:00:00 TS 15.4000 132.200 1004 tokyo main 807 774 _OO___________ -1 15.4000 132.200 2 1004 0 0 0 15.4000 132.200 0 1004 8 281
1968218N15141 1968 58 WP MM ROSE 1968-08-07 15:00:00 TS 15.4926 131.746 main 764 732 _PP___________ -1 15.4926 131.735 2 1004 0 0 15.4925 131.758 0 1004 9 283
1968218N15141 1968 58 WP MM ROSE 1968-08-07 18:00:00 TS 15.6000 131.300 1004 tokyo main 732 711 _OO___________ -1 15.6000 131.300 2 1004 0 0 0 15.6000 131.300 0 1004 8 285
1968218N15141 1968 58 WP MM ROSE 1968-08-07 21:00:00 TS 15.6922 130.986 main 711 690 _PP___________ -1 15.6921 131.072 2 1004 0 0 15.6923 130.900 0 1004 7 288
1968218N15141 1968 58 WP MM ROSE 1968-08-08 00:00:00 TS 15.8000 130.650 1004 tokyo main 690 654 _OO___________ -1 15.8000 130.800 2 1004 0 0 0 15.8000 130.500 0 1004 9 288
1968218N15141 1968 58 WP MM ROSE 1968-08-08 03:00:00 TS 15.9502 130.136 main 653 610 _PP___________ -1 15.9504 130.223 2 1003 0 0 15.9500 130.050 0 1003 11 287
1968218N15141 1968 58 WP MM ROSE 1968-08-08 06:00:00 TS 16.1000 129.600 1002 tokyo main 610 576 _OO___________ -1 16.1000 129.600 2 1002 0 0 0 16.1000 129.600 0 1002 10 285
1968218N15141 1968 58 WP MM ROSE 1968-08-08 09:00:00 TS 16.2036 129.181 main 576 543 _PP___________ -1 16.2072 129.170 2 1002 0 0 16.1999 129.192 0 1002 8 285
1968218N15141 1968 58 WP MM ROSE 1968-08-08 12:00:00 TS 16.3000 128.800 1002 tokyo main 543 512 _OO___________ -1 16.3000 128.800 2 1002 0 0 0 16.3000 128.800 0 1002 8 286
1968218N15141 1968 58 WP MM ROSE 1968-08-08 15:00:00 TS 16.4212 128.400 main 512 483 _PP___________ -1 16.3924 128.400 2 1002 0 0 16.4499 128.400 0 1002 8 288
1968218N15141 1968 58 WP MM ROSE 1968-08-08 18:00:00 TS 16.5500 128.000 1002 tokyo main 490 464 _OO___________ -1 16.5000 128.000 2 1002 0 0 0 16.6000 128.000 0 1002 8 289
1968218N15141 1968 58 WP MM ROSE 1968-08-08 21:00:00 TS 16.6787 127.600 main 464 441 _PP___________ -1 16.6499 127.600 2 1001 0 0 16.7074 127.600 0 1002 8 287
1968218N15141 1968 58 WP MM ROSE 1968-08-09 00:00:00 TS 16.7889 127.178 1000 tokyo main 441 420 _OOO__________ -1 16.8000 127.200 2 1000 0 0 0 16.8000 127.200 1 29 1002 16.7000 127.000 TD 25 1000 8 285
1968218N15141 1968 58 WP MM ROSE 1968-08-09 03:00:00 TS 16.8884 126.778 main 420 401 _PPP__________ -1 16.9074 126.807 2 999 0 0 16.9074 126.808 1 29 1000 16.8126 126.660 TD 27 1000 8 283
1968218N15141 1968 58 WP MM ROSE 1968-08-09 06:00:00 TS 16.9727 126.373 998 tokyo main 404 372 _OOO__________ -1 17.0000 126.400 2 998 0 0 0 17.0000 126.400 1 29 998 16.9000 126.300 TD 30 1000 8 281
1968218N15141 1968 58 WP MM ROSE 1968-08-09 09:00:00 TS 17.0383 125.943 main 361 319 _PPP__________ -1 17.1074 125.958 2 998 0 0 17.0574 125.965 1 29 998 16.9500 125.907 TD 30 1000 8 279
1968218N15141 1968 58 WP MM ROSE 1968-08-09 12:00:00 TS 17.1000 125.500 998 tokyo main 319 277 _OOO__________ -1 17.2000 125.500 2 998 0 0 0 17.1000 125.500 1 29 998 17.0000 125.500 TD 30 1000 8 278
1968218N15141 1968 58 WP MM ROSE 1968-08-09 15:00:00 TS 17.1614 125.077 main 277 224 _PPP__________ -1 17.2498 125.057 2 998 0 0 17.1419 125.060 1 29 998 17.0923 125.115 TD 32 997 9 279
1968218N15141 1968 58 WP MM ROSE 1968-08-09 18:00:00 TS 17.2333 124.600 998 tokyo main 224 173 _OOO__________ -1 17.3000 124.600 2 998 0 0 0 17.2000 124.500 1 29 998 17.2000 124.700 TS 35 995 10 279
1968218N15141 1968 58 WP MM ROSE 1968-08-09 21:00:00 TS 17.3200 124.075 main 173 105 _PPP__________ -1 17.3919 124.160 2 998 0 0 17.2931 123.673 1 33 998 17.2750 124.394 TS 37 992 12 280
1968218N15141 1968 58 WP MM ROSE 1968-08-10 00:00:00 TS 17.4250 123.400 998 tokyo main 105 35 OOOO_____OOO__ jtwc_wp WP081968 17.4000 123.500 20 -1 17.5000 123.600 9 998 0 0 0 17.4000 122.800 2 38 998 17.4000 123.700 TS 40 990 17.4000 123.500 TC 20 17.4000 123.500 1 20 17.4000 123.500 20 1002 180 16 280
1968218N15141 1968 58 WP MM ROSE 1968-08-10 03:00:00 TS 17.5923 122.469 main 35 0 PPPP_____PPP__ WP081968 17.6078 122.735 22 -1 17.5927 122.802 9 995 0 0 17.4995 122.120 2 38 997 17.6555 122.009 TS 42 987 17.6078 122.735 TC 22 17.6045 122.617 1 22 17.6078 122.735 22 1001 180 18 281
1968218N15141 1968 58 WP MM ROSE 1968-08-10 06:00:00 TS 17.7661 121.546 992 tokyo main 0 0 OOOO_____OPO__ jtwc_wp WP081968 17.8000 121.900 25 -1 17.7000 121.900 9 992 0 0 0 17.6000 121.500 2 38 996 17.9000 120.300 TS 45 985 17.8000 121.900 TC 25 17.7956 121.737 1 25 17.8000 121.900 25 1000 180 17 281
1968218N15141 1968 58 WP MM ROSE 1968-08-10 09:00:00 TS 17.9193 120.751 main 0 0 PPPP_____PPP__ WP081968 17.9651 120.957 27 -1 17.8571 121.050 9 988 0 0 17.6920 120.872 2 43 994 18.0271 119.599 TS 47 982 17.9651 120.957 TC 27 17.9638 120.863 1 27 17.9651 120.957 27 999 180 16 280
1968218N15141 1968 58 WP MM ROSE 1968-08-10 12:00:00 TS 18.0429 119.943 985 tokyo main 61 61 OOOO_____OOO__ jtwc_wp WP081968 18.1000 120.000 30 -1 18.0000 120.200 9 985 0 0 0 17.8000 120.200 3 48 992 18.1000 119.200 STS 50 980 18.1000 120.000 TC 30 18.1000 120.000 1 30 18.1000 120.000 30 999 180 16 278
1968218N15141 1968 58 WP MM ROSE 1968-08-10 15:00:00 TS 18.1490 119.120 main 138 138 PPPP_____PPP__ WP081968 18.2221 119.120 35 0 18.0571 119.350 9 982 0 0 17.9571 119.445 3 53 988 18.1649 118.530 STS 52 980 18.2221 119.120 TC 35 18.1973 119.154 1 33 18.2221 119.120 35 998 210 16 277
1968218N15141 1968 58 WP MM ROSE 1968-08-10 18:00:00 TS 18.2227 118.305 980 tokyo main 222 222 OOOO_____OPO__ jtwc_wp WP081968 18.3000 118.300 40 0 18.1000 118.500 9 980 0 0 0 18.1000 118.600 3 58 985 18.2000 117.800 STS 55 980 18.3000 118.300 TC 40 18.2591 118.332 1 37 18.3000 118.300 40 998 240 16 274
1968218N15141 1968 58 WP MM ROSE 1968-08-10 21:00:00 TS 18.2637 117.481 main 306 306 PPPP_____PPP__ WP081968 18.3222 117.520 42 0 18.2075 117.620 9 977 0 0 18.1729 117.627 3 63 982 18.2077 117.012 STS 55 977 18.3222 117.520 TC 42 18.2913 117.544 1 41 18.3222 117.520 42 997 270 15 272
1968218N15141 1968 58 WP MM ROSE 1968-08-11 00:00:00 TS 18.2714 116.714 975 tokyo main 388 388 OOOO_____OOO__ jtwc_wp WP081968 18.3000 116.800 45 0 18.3000 116.800 9 975 0 0 0 18.2000 116.700 4 68 980 18.2000 116.300 STS 55 975 18.3000 116.800 TC 45 18.3000 116.800 2 45 18.3000 116.800 45 996 300 13 269
1968218N15141 1968 58 WP MM ROSE 1968-08-11 03:00:00 TS 18.2465 116.063 main 446 446 PPPP_____PPP__ WP081968 18.2496 116.135 47 0 18.3145 116.112 9 977 0 0 18.1993 115.997 4 68 978 18.1918 115.835 STS 55 975 18.2496 116.135 TC 47 18.2710 116.094 2 47 18.2496 116.135 47 994 300 12 267
1968218N15141 1968 58 WP MM ROSE 1968-08-11 06:00:00 TS 18.2180 115.462 980 tokyo main 475 439 OOOO_____OPO__ jtwc_wp WP081968 18.2000 115.500 50 0 18.3000 115.500 9 980 0 0 0 18.2000 115.400 4 68 977 18.2000 115.400 STS 55 975 18.2000 115.500 TC 50 18.2261 115.431 2 50 18.2000 115.500 50 992 300 12 268
1968218N15141 1968 58 WP MM ROSE 1968-08-11 09:00:00 TS 18.2125 114.824 main 429 371 PPPP_____PPP__ WP081968 18.1774 114.835 52 0 18.2847 114.892 9 980 0 0 18.2347 114.792 4 68 976 18.2426 114.773 STS 55 975 18.1774 114.835 TC 52 18.1931 114.803 2 52 18.1774 114.835 52 990 300 12 271
1968218N15141 1968 58 WP MM ROSE 1968-08-11 12:00:00 TS 18.2429 114.200 980 tokyo main 371 309 OOOO_____OOO__ jtwc_wp WP081968 18.2000 114.200 55 0 18.3000 114.300 9 980 0 0 0 18.3000 114.200 4 68 976 18.3000 114.100 STS 55 975 18.2000 114.200 TC 55 18.2000 114.200 2 55 18.2000 114.200 55 988 300 12 275
1968218N15141 1968 58 WP MM ROSE 1968-08-11 15:00:00 TS 18.3221 113.610 main 309 258 PPPP_____PPP__ WP081968 18.2771 113.642 57 0 18.3999 113.693 9 977 0 0 18.3999 113.585 4 68 975 18.3424 113.477 STS 57 972 18.2771 113.642 TC 57 18.2813 113.588 2 56 18.2771 113.642 57 986 300 11 280
1968218N15141 1968 58 WP MM ROSE 1968-08-11 18:00:00 TS 18.4292 113.043 975 tokyo main 249 199 OOOO_____OPO__ jtwc_wp WP081968 18.4000 113.100 60 0 18.5000 113.100 9 975 0 0 0 18.5000 113.000 4 68 975 18.4000 112.900 STS 60 970 18.4000 113.100 TC 60 18.4044 112.998 2 57 18.4000 113.100 60 984 300 11 281
1968218N15141 1968 58 WP MM ROSE 1968-08-11 21:00:00 TS 18.5357 112.473 main 199 153 PPPP_____PPP__ WP081968 18.5500 112.493 60 0 18.4999 112.520 9 972 0 0 18.5572 112.485 4 68 972 18.4922 112.392 STS 60 970 18.5500 112.493 TC 60 18.5502 112.435 2 58 18.5500 112.493 60 982 300 11 281
1968218N15141 1968 58 WP MM ROSE 1968-08-12 00:00:00 TS 18.6429 111.929 970 tokyo main 143 90 OOOO_____OOO__ jtwc_wp WP081968 18.7000 111.900 60 0 18.5000 112.000 9 970 0 0 0 18.6000 112.000 4 68 970 18.6000 111.900 STS 60 970 18.7000 111.900 TC 60 18.7000 111.900 2 60 18.7000 111.900 60 980 300 10 281
1968218N15141 1968 58 WP MM ROSE 1968-08-12 03:00:00 TS 18.7321 111.418 main 90 47 PPPP_____PPP__ WP081968 18.7998 111.377 60 0 18.5697 111.585 9 970 0 0 18.6350 111.485 4 68 970 18.7001 111.335 STS 60 970 18.7998 111.377 TC 60 18.8202 111.392 2 60 18.7998 111.377 60 979 270 10 282
1968218N15141 1968 58 WP MM ROSE 1968-08-12 06:00:00 TS 18.8345 110.945 970 tokyo main 38 0 OOOO_____OPO__ jtwc_wp WP081968 18.9000 110.900 60 0 18.7000 111.200 9 970 0 0 0 18.7000 111.000 4 68 970 18.8000 110.800 STS 60 970 18.9000 110.900 TC 60 18.9416 110.912 2 60 18.9000 110.900 60 979 240 9 285
1968218N15141 1968 58 WP MM ROSE 1968-08-12 09:00:00 TS 18.9723 110.500 main 0 0 PPPP_____PPP__ WP081968 19.0423 110.442 60 0 18.8924 110.758 9 975 0 0 18.8348 110.585 4 63 972 18.8848 110.377 STS 57 972 19.0423 110.442 TC 60 19.0672 110.451 2 60 19.0423 110.442 60 980 240 9 290
1968218N15141 1968 58 WP MM ROSE 1968-08-12 12:00:00 TS 19.1286 110.071 980 tokyo main 0 0 OOOO_____OOO__ jtwc_wp WP081968 19.2000 110.000 60 0 19.1000 110.300 9 980 0 0 0 19.0000 110.200 3 58 975 19.0000 110.000 STS 55 975 19.2000 110.000 TC 60 19.2000 110.000 2 60 19.2000 110.000 60 982 240 9 291
1968218N15141 1968 58 WP MM ROSE 1968-08-12 15:00:00 TS 19.2852 109.641 main 0 0 PPPP_____PPP__ WP081968 19.3499 109.550 55 0 19.2498 109.865 9 980 0 0 19.1498 109.815 3 58 978 19.1924 109.608 STS 55 975 19.3499 109.550 TC 55 19.3545 109.547 2 55 19.3499 109.550 55 983 210 9 291
1968218N15141 1968 58 WP MM ROSE 1968-08-12 18:00:00 TS 19.4449 109.200 980 tokyo main 0 0 OOOO_____OPO__ jtwc_wp WP081968 19.5000 109.100 50 0 19.4000 109.400 9 980 0 0 0 19.3000 109.400 3 58 982 19.4000 109.200 STS 55 975 19.5000 109.100 TC 50 19.5143 109.100 2 50 19.5000 109.100 50 984 180 9 291
1968218N15141 1968 58 WP MM ROSE 1968-08-12 21:00:00 TS 19.6099 108.735 main 22 22 PPPP_____PPP__ WP081968 19.6648 108.658 45 0 19.6001 108.843 9 982 0 0 19.4500 108.915 3 58 983 19.5574 108.765 STS 52 977 19.6648 108.658 TC 45 19.6670 108.653 2 45 19.6648 108.658 45 984 180 9 289
1968218N15141 1968 58 WP MM ROSE 1968-08-13 00:00:00 TS 19.7571 108.257 985 tokyo main 61 61 OOOO_____OOO__ jtwc_wp WP081968 19.8000 108.200 40 0 19.8000 108.300 9 985 0 0 0 19.6000 108.400 3 58 985 19.7000 108.300 STS 50 980 19.8000 108.200 TC 40 19.8000 108.200 2 40 19.8000 108.200 40 985 180 9 286
1968218N15141 1968 58 WP MM ROSE 1968-08-13 03:00:00 TS 19.8673 107.776 main 107 80 PPPP_____PPP__ WP081968 19.8575 107.700 37 0 19.9721 107.900 9 985 0 0 19.7574 107.893 3 53 987 19.8649 107.808 STS 50 980 19.8575 107.700 TC 37 19.9041 107.736 2 37 19.8575 107.700 37 986 180 9 283
1968218N15141 1968 58 WP MM ROSE 1968-08-13 06:00:00 TS 19.9605 107.308 985 tokyo main 80 45 OOOO_____OPO__ jtwc_wp WP081968 19.9000 107.200 35 0 20.1000 107.500 9 985 0 0 0 19.9000 107.400 3 48 990 20.0000 107.300 STS 50 980 19.9000 107.200 TC 35 19.9837 107.263 2 35 19.9000 107.200 35 988 180 9 282
1968218N15141 1968 58 WP MM ROSE 1968-08-13 09:00:00 TS 20.0521 106.843 main 30 10 PPPP_____PPP__ WP081968 19.9851 106.738 32 -1 20.1800 106.973 9 985 0 0 20.0148 106.950 3 43 990 20.0649 106.792 STS 45 982 19.9851 106.738 TC 32 20.0464 106.783 2 32 19.9851 106.738 32 990 180 9 281
1968218N15141 1968 58 WP MM ROSE 1968-08-13 12:00:00 TS 20.1286 106.371 985 tokyo main 10 0 OOOO_____OOO__ jtwc_wp WP081968 20.1000 106.300 30 -1 20.2000 106.400 9 985 0 0 0 20.1000 106.500 2 38 990 20.1000 106.300 TS 40 985 20.1000 106.300 TC 30 20.1000 106.300 1 30 20.1000 106.300 30 992 180 9 277
1968218N15141 1968 58 WP MM ROSE 1968-08-13 15:00:00 TS 20.1583 105.873 main 0 0 _PPP__________ WP081968 -1 20.1651 105.820 9 985 0 0 20.1579 106.013 2 33 995 20.1452 105.840 TS 35 990 TC 1 10 270
1968218N15141 1968 58 WP MM ROSE 1968-08-13 18:00:00 TS 20.1333 105.350 985 tokyo main 0 0 _OOO__________ -1 20.1000 105.300 9 985 0 0 0 20.2000 105.500 1 29 1000 20.2000 105.400 TD 30 995 1 9 263
1968218N15141 1968 58 WP MM ROSE 1968-08-13 21:00:00 NR 20.0422 104.920 main 0 0 _P____________ -1 20.0422 104.920 9 987 0 0 1 TD 1 7 259
1968218N15141 1968 58 WP MM ROSE 1968-08-14 00:00:00 NR 20.0000 104.600 990 tokyo main 0 0 _O____________ -1 20.0000 104.600 9 990 0 0 0 6 265
1968218N15141 1968 58 WP MM ROSE 1968-08-14 03:00:00 NR 19.9923 104.265 main 0 0 _P____________ -1 19.9923 104.265 9 992 0 0 7 270
1968218N15141 1968 58 WP MM ROSE 1968-08-14 06:00:00 TS 20.0000 103.900 995 tokyo main 0 0 _O____________ -1 20.0000 103.900 2 995 0 0 0 7 271
1968218N15141 1968 58 WP MM ROSE 1968-08-14 09:00:00 TS 19.9999 103.473 main 0 0 _P____________ -1 19.9999 103.472 2 995 0 0 8 270
1968218N15141 1968 58 WP MM ROSE 1968-08-14 12:00:00 TS 20.0000 103.000 995 tokyo main 0 0 _O____________ -1 20.0000 103.000 2 995 0 0 0 9 265
1968218N15141 1968 58 WP MM ROSE 1968-08-14 15:00:00 TS 19.9249 102.507 main 0 0 _P____________ -1 19.9249 102.507 2 997 0 0 9 270
1968218N15141 1968 58 WP MM ROSE 1968-08-14 18:00:00 TS 20.0000 102.000 1000 tokyo main 0 0 _O____________ -1 20.0000 102.000 2 1000 0 0 0 11 297
1968218N15141 1968 58 WP MM ROSE 1968-08-14 21:00:00 TS 20.4003 101.499 main 0 0 _P____________ -1 20.4003 101.499 2 1000 0 0 14 317
1968218N15141 1968 58 WP MM ROSE 1968-08-15 00:00:00 TS 21.0000 101.000 1000 tokyo main 0 _O____________ -1 21.0000 101.000 2 1000 0 0 0 15 322

Digital Typhoon Data and Search

About IBTrACS Database

This database is a web-friendly format of International Best Track Archive for Climate Stewardship (IBTrACS), a global best track data archive curated by NOAA dating back to 1842.

Updated: 2021-12-06